Time;durP1;ratioP1;P1;durP2;ratioP2;P2;SDS_P1;SDS_P2;PMS_P1;PMS_P2;Temp;Humidity;BMP_temperature;BMP_pressure;BME280_temperature;BME280_humidity;BME280_pressure;Samples;Min_cycle;Max_cycle;Signal;HPM_P1;HPM_P2
2022/08/30 00:02:38;;;;;;;9.15;8.25;;;;;;;24.10;86.13;99572.41;1752104;80;21467;-64
2022/08/30 00:05:05;;;;;;;9.93;8.40;;;;;;;24.10;86.23;99564.86;1763278;80;21520;-64
2022/08/30 00:07:32;;;;;;;9.53;8.63;;;;;;;24.14;86.38;99569.44;1748763;80;21527;-65
2022/08/30 00:09:58;;;;;;;10.40;8.00;;;;;;;24.13;86.68;99571.28;1754481;80;21792;-64
2022/08/30 00:12:25;;;;;;;10.75;8.95;;;;;;;24.07;86.57;99568.72;1722351;80;21533;-64
2022/08/30 00:14:52;;;;;;;11.87;8.30;;;;;;;24.03;87.12;99567.31;1719718;82;21514;-64
2022/08/30 00:17:19;;;;;;;10.70;8.45;;;;;;;24.04;87.20;99566.33;1720238;82;21514;-64
2022/08/30 00:19:45;;;;;;;9.38;8.30;;;;;;;24.07;87.57;99572.74;1715933;81;21058;-64
2022/08/30 00:22:12;;;;;;;12.93;8.53;;;;;;;24.01;87.04;99561.25;1715513;81;21992;-65
2022/08/30 00:24:38;;;;;;;9.68;8.68;;;;;;;24.01;87.34;99566.63;1707523;82;21529;-65
2022/08/30 00:27:05;;;;;;;9.13;8.23;;;;;;;23.99;87.84;99571.81;1712796;82;21021;-65
2022/08/30 00:29:32;;;;;;;10.38;9.28;;;;;;;23.98;87.95;99571.45;1711434;82;21577;-64
2022/08/30 00:32:00;;;;;;;9.90;8.05;;;;;;;23.97;88.21;99568.44;1719003;82;21511;-66
2022/08/30 00:34:27;;;;;;;8.68;7.75;;;;;;;23.98;88.44;99573.66;1703589;82;21570;-68
2022/08/30 00:36:54;;;;;;;9.28;8.13;;;;;;;24.00;88.11;99572.17;1724218;82;21582;-67
2022/08/30 00:39:20;;;;;;;9.05;8.13;;;;;;;23.98;88.44;99573.66;1716622;81;21455;-67
2022/08/30 00:41:47;;;;;;;9.30;7.42;;;;;;;23.99;88.47;99576.67;1720992;81;21581;-67
2022/08/30 00:44:14;;;;;;;13.90;8.58;;;;;;;23.99;88.34;99569.13;1717547;81;21629;-67
2022/08/30 00:46:41;;;;;;;8.35;7.62;;;;;;;24.06;88.37;99576.41;1695215;83;21900;-66
2022/08/30 00:49:08;;;;;;;8.73;7.70;;;;;;;24.09;88.17;99575.25;1716837;82;21566;-67
2022/08/30 00:51:34;;;;;;;8.53;7.12;;;;;;;24.13;87.69;99576.66;1719639;81;21482;-66
2022/08/30 00:54:01;;;;;;;8.40;7.60;;;;;;;24.11;87.74;99575.97;1716315;81;21615;-66
2022/08/30 00:56:28;;;;;;;8.43;7.65;;;;;;;24.06;88.24;99575.07;1717909;82;21447;-66
2022/08/30 00:58:56;;;;;;;11.50;7.90;;;;;;;24.01;88.28;99576.02;1715031;82;21848;-67
2022/08/30 01:01:24;;;;;;;7.75;6.90;;;;;;;23.98;88.61;99575.48;1725774;82;21459;-66
2022/08/30 01:03:50;;;;;;;;;;;;;;;23.97;88.88;99585.89;1691315;82;21522;-66
2022/08/30 01:06:17;;;;;;;9.03;7.67;;;;;;;23.94;91.91;99587.05;1723753;82;20454;-66
2022/08/30 01:08:44;;;;;;;8.20;7.37;;;;;;;23.87;89.13;99581.95;1722220;82;21488;-66
2022/08/30 01:11:14;;;;;;;8.03;7.33;;;;;;;23.83;89.80;99591.31;1717748;80;21844;-65
2022/08/30 01:13:40;;;;;;;9.38;7.70;;;;;;;23.85;89.50;99589.31;1731271;80;21563;-65
2022/08/30 01:16:07;;;;;;;10.20;7.60;;;;;;;23.81;89.80;99591.45;1750299;80;21540;-65
2022/08/30 01:18:35;;;;;;;8.83;7.85;;;;;;;23.80;90.08;99590.26;1739997;80;21530;-65
2022/08/30 01:21:10;;;;;;;10.25;8.10;;;;;;;23.81;90.08;99589.24;1744353;80;21480;-65
2022/08/30 01:23:41;;;;;;;10.43;8.05;;;;;;;23.82;90.14;99591.78;1735811;80;21568;-65
2022/08/30 01:26:09;;;;;;;9.70;7.80;;;;;;;23.81;90.21;99586.09;1747737;80;21581;-65
2022/08/30 01:28:36;;;;;;;8.43;7.67;;;;;;;23.74;90.28;99589.50;1740701;80;21073;-66
2022/08/30 01:31:02;;;;;;;12.80;8.53;;;;;;;23.66;91.05;99588.41;1738493;80;21536;-66
2022/08/30 01:33:29;;;;;;;9.18;8.18;;;;;;;23.52;91.78;99596.45;1741737;80;21447;-66
2022/08/30 01:36:00;;;;;;;9.65;8.73;;;;;;;23.52;91.78;99596.45;1741753;80;21452;-67
2022/08/30 01:38:30;;;;;;;11.63;8.38;;;;;;;23.46;92.42;99594.89;1744296;80;21414;-66
2022/08/30 01:41:20;;;;;;;10.32;8.70;;;;;;;23.42;92.77;99592.16;1740232;80;21506;-66
2022/08/30 01:43:47;;;;;;;12.10;9.45;;;;;;;23.35;93.58;99597.27;1747492;80;21495;-66
2022/08/30 01:46:15;;;;;;;;;;;;;;;23.29;93.66;99599.21;1748360;80;21628;-65
2022/08/30 01:48:42;;;;;;;12.13;8.28;;;;;;;23.28;97.52;99605.55;1749816;80;21805;-66
2022/08/30 01:51:11;;;;;;;11.83;8.97;;;;;;;23.18;94.21;99601.58;1733924;80;21537;-66
2022/08/30 01:53:40;;;;;;;10.13;9.08;;;;;;;23.16;95.14;99603.56;1740939;80;21506;-65
2022/08/30 01:56:07;;;;;;;9.78;8.75;;;;;;;23.10;95.71;99605.00;1748384;80;21508;-66
2022/08/30 01:58:35;;;;;;;11.93;9.10;;;;;;;23.10;95.04;99605.50;1747036;80;21034;-65
2022/08/30 02:01:03;;;;;;;;;;;;;;;23.02;96.16;99608.89;1739814;80;21812;-66
2022/08/30 02:03:33;;;;;;;;;;;;;;;22.91;100.00;99617.11;1740538;80;20407;-66
2022/08/30 02:06:06;;;;;;;8.98;8.08;;;;;;;22.87;100.00;99610.35;1740406;80;20419;-66
2022/08/30 02:08:33;;;;;;;10.72;9.28;;;;;;;22.74;97.53;99610.66;1746724;80;21522;-66
2022/08/30 02:11:00;;;;;;;10.43;8.78;;;;;;;22.67;98.04;99612.22;1736867;80;21542;-65
2022/08/30 02:13:27;;;;;;;14.20;9.23;;;;;;;22.62;98.37;99620.71;1745923;80;21870;-65
2022/08/30 02:15:54;;;;;;;10.18;8.98;;;;;;;22.59;98.63;99617.47;1741183;80;21549;-66
2022/08/30 02:18:23;;;;;;;12.70;9.38;;;;;;;22.55;98.89;99620.42;1744793;80;21530;-66
2022/08/30 02:20:49;;;;;;;11.03;9.88;;;;;;;22.51;99.01;99628.91;1748039;80;21408;-66
2022/08/30 02:23:16;;;;;;;10.18;9.08;;;;;;;22.49;99.54;99633.06;1738621;80;21518;-66
2022/08/30 02:25:44;;;;;;;11.50;9.78;;;;;;;22.49;99.54;99633.06;1748172;80;21816;-66
2022/08/30 02:28:12;;;;;;;;;;;;;;;22.51;99.58;99636.44;1753290;80;21021;-66
2022/08/30 02:30:39;;;;;;;12.68;8.83;;;;;;;22.47;100.00;99644.88;1750223;80;20167;-66
2022/08/30 02:33:05;;;;;;;13.98;9.55;;;;;;;22.43;99.49;99631.42;1742461;80;21533;-66
2022/08/30 02:35:34;;;;;;;10.05;8.70;;;;;;;22.37;100.00;99638.20;1743673;80;21522;-67
2022/08/30 02:38:00;;;;;;;14.58;9.33;;;;;;;22.37;100.00;99638.20;1743414;80;21895;-66
2022/08/30 02:40:27;;;;;;;9.98;9.03;;;;;;;22.26;100.00;99651.23;1743600;80;21527;-67
2022/08/30 02:42:53;;;;;;;13.05;9.18;;;;;;;22.24;100.00;99654.52;1742610;80;21448;-66
2022/08/30 02:45:20;;;;;;;12.58;8.85;;;;;;;22.29;100.00;99650.13;1744715;80;21582;-67
2022/08/30 02:47:47;;;;;;;13.18;9.13;;;;;;;22.29;100.00;99650.13;1742222;80;21510;-66
2022/08/30 02:50:14;;;;;;;11.20;8.98;;;;;;;22.29;100.00;99651.45;1759423;80;21833;-66
2022/08/30 02:52:40;;;;;;;10.47;9.37;;;;;;;22.29;100.00;99654.14;1747412;80;21060;-66
2022/08/30 02:55:08;;;;;;;11.25;9.83;;;;;;;22.25;100.00;99663.41;1738966;80;21551;-66
2022/08/30 02:57:35;;;;;;;10.82;9.50;;;;;;;22.23;100.00;99656.02;1741528;80;21447;-66
2022/08/30 03:00:08;;;;;;;11.75;9.98;;;;;;;22.15;100.00;99658.89;1740993;80;21521;-65
2022/08/30 03:02:35;;;;;;;11.00;9.78;;;;;;;22.14;100.00;99665.22;1743999;80;21884;-65
2022/08/30 03:05:03;;;;;;;10.88;9.83;;;;;;;22.13;100.00;99655.98;1740121;80;21566;-66
2022/08/30 03:07:30;;;;;;;;;;;;;;;22.07;100.00;99660.06;1745669;80;21531;-66
2022/08/30 03:09:57;;;;;;;10.65;9.55;;;;;;;21.99;100.00;99670.63;1741413;80;20283;-66
2022/08/30 03:12:24;;;;;;;15.85;10.10;;;;;;;21.98;100.00;99659.55;1747623;80;21471;-66
2022/08/30 03:14:51;;;;;;;11.35;10.08;;;;;;;22.04;100.00;99669.73;1748060;80;21973;-66
2022/08/30 03:17:17;;;;;;;11.12;10.13;;;;;;;22.01;100.00;99670.00;1756089;80;21510;-66
2022/08/30 03:19:45;;;;;;;13.55;11.35;;;;;;;22.00;100.00;99665.64;1760084;80;21443;-66
2022/08/30 03:22:11;;;;;;;12.88;11.12;;;;;;;21.93;100.00;99669.85;1746354;80;21526;-66
2022/08/30 03:24:39;;;;;;;12.30;11.10;;;;;;;21.91;100.00;99677.17;1757043;80;21061;-66
2022/08/30 03:27:06;;;;;;;13.08;11.70;;;;;;;21.90;100.00;99674.13;1754927;80;21854;-66
2022/08/30 03:29:34;;;;;;;14.60;11.50;;;;;;;21.82;100.00;99670.80;1758397;80;21683;-66
2022/08/30 03:32:00;;;;;;;13.83;11.85;;;;;;;21.82;100.00;99670.80;1757538;80;21648;-67
2022/08/30 03:34:27;;;;;;;13.20;11.90;;;;;;;21.78;100.00;99682.77;1746333;80;21476;-66
2022/08/30 03:36:54;;;;;;;13.43;12.15;;;;;;;21.80;100.00;99688.83;1748259;80;21447;-67
2022/08/30 03:39:22;;;;;;;11.90;10.65;;;;;;;21.83;100.00;99689.03;1755681;80;21757;-63
2022/08/30 03:41:48;;;;;;;12.35;11.20;;;;;;;21.87;100.00;99695.34;1760527;80;21498;-66
2022/08/30 03:44:15;;;;;;;13.78;12.37;;;;;;;21.89;100.00;99701.89;1750781;80;21573;-63
2022/08/30 03:46:42;;;;;;;14.03;11.55;;;;;;;21.88;100.00;99695.67;1748780;80;21088;-65
2022/08/30 03:49:09;;;;;;;13.43;12.00;;;;;;;21.91;100.00;99702.60;1752628;80;21570;-65
2022/08/30 03:51:36;;;;;;;14.17;12.17;;;;;;;21.94;100.00;99700.97;1753014;80;21845;-65
2022/08/30 03:54:03;;;;;;;13.08;11.68;;;;;;;21.96;100.00;99708.37;1743035;80;21645;-65
2022/08/30 03:56:29;;;;;;;14.45;12.20;;;;;;;21.81;100.00;99711.91;1751740;80;21490;-65
2022/08/30 03:58:56;;;;;;;13.07;11.87;;;;;;;21.81;100.00;99711.91;1754849;80;21466;-64
2022/08/30 04:01:23;;;;;;;12.80;11.05;;;;;;;21.85;100.00;99712.02;1758939;80;21593;-65
2022/08/30 04:03:49;;;;;;;13.88;11.97;;;;;;;21.85;100.00;99712.02;1752162;80;21826;-64
2022/08/30 04:06:16;;;;;;;12.82;10.90;;;;;;;21.80;100.00;99716.09;1756976;80;21585;-64
2022/08/30 04:08:44;;;;;;;12.37;11.12;;;;;;;21.83;100.00;99721.16;1754274;80;21439;-65
2022/08/30 04:11:15;;;;;;;12.55;11.43;;;;;;;21.90;100.00;99719.63;1756864;80;21574;-64
2022/08/30 04:13:42;;;;;;;11.38;10.38;;;;;;;21.92;100.00;99725.69;1734737;80;21424;-64
2022/08/30 04:16:09;;;;;;;12.00;10.65;;;;;;;21.99;100.00;99730.02;1736632;81;21828;-65
2022/08/30 04:18:36;;;;;;;12.37;11.18;;;;;;;21.98;100.00;99726.47;1740898;81;21593;-65
2022/08/30 04:21:03;;;;;;;10.98;9.98;;;;;;;21.95;100.00;99728.11;1748808;80;21559;-65
2022/08/30 04:23:30;;;;;;;11.10;10.07;;;;;;;21.95;100.00;99732.95;1729482;81;21529;-65
2022/08/30 04:25:56;;;;;;;10.95;9.90;;;;;;;21.92;100.00;99737.73;1736245;81;21772;-65
2022/08/30 04:28:23;;;;;;;11.60;10.48;;;;;;;21.99;100.00;99726.00;1740606;81;22130;-65
2022/08/30 04:30:49;;;;;;;11.57;10.40;;;;;;;22.00;100.00;99731.23;1735134;81;21406;-66
2022/08/30 04:33:16;;;;;;;10.05;9.13;;;;;;;22.07;100.00;99731.51;1739401;81;21616;-65
2022/08/30 04:35:45;;;;;;;9.50;8.63;;;;;;;22.05;100.00;99737.49;1737108;81;21002;-65
2022/08/30 04:38:12;;;;;;;10.05;8.95;;;;;;;22.07;100.00;99733.69;1736764;81;21513;-65
2022/08/30 04:40:47;;;;;;;9.20;8.40;;;;;;;22.14;100.00;99729.48;1742848;81;21848;-65
2022/08/30 04:43:14;;;;;;;9.95;8.80;;;;;;;22.20;100.00;99727.24;1747776;80;21553;-64
2022/08/30 04:45:41;;;;;;;8.88;8.08;;;;;;;22.21;100.00;99725.77;1738478;81;21572;-66
2022/08/30 04:48:08;;;;;;;8.73;8.03;;;;;;;22.34;100.00;99722.87;1738788;81;21634;-65
2022/08/30 04:50:35;;;;;;;8.40;7.70;;;;;;;22.34;100.00;99722.87;1739763;81;21435;-66
2022/08/30 04:53:04;;;;;;;8.58;7.87;;;;;;;22.39;100.00;99719.75;1732861;81;21555;-65
2022/08/30 04:55:32;;;;;;;8.60;7.80;;;;;;;22.50;100.00;99724.98;1746286;81;20935;-63
2022/08/30 04:57:59;;;;;;;8.47;7.60;;;;;;;22.50;100.00;99724.98;1740782;81;21490;-64
2022/08/30 05:00:26;;;;;;;8.98;8.13;;;;;;;22.55;100.00;99723.57;1747659;81;21550;-64
2022/08/30 05:02:52;;;;;;;7.20;6.53;;;;;;;22.54;100.00;99722.37;1739509;81;21470;-65
2022/08/30 05:08:11;;;;;;;7.10;6.50;;;;;;;22.71;100.00;99719.48;1742511;81;21530;-66
2022/08/30 05:10:40;;;;;;;7.17;6.30;;;;;;;22.82;100.00;99716.64;1742115;80;21459;-67
2022/08/30 05:13:08;;;;;;;6.45;5.90;;;;;;;22.82;100.00;99716.64;1740713;80;21471;-67
2022/08/30 05:15:36;;;;;;;6.85;6.25;;;;;;;22.84;100.00;99720.03;1759252;80;21686;-66
2022/08/30 05:18:03;;;;;;;6.07;5.57;;;;;;;22.84;100.00;99722.70;1749132;80;21536;-66
2022/08/30 05:20:30;;;;;;;6.78;6.28;;;;;;;22.92;100.00;99717.97;1743654;80;26210;-66
2022/08/30 05:22:57;;;;;;;5.85;5.35;;;;;;;23.04;100.00;99722.73;1748690;80;21498;-67
2022/08/30 05:25:26;;;;;;;6.17;5.58;;;;;;;23.14;100.00;99716.84;1748839;80;21483;-67
2022/08/30 05:27:53;;;;;;;6.03;5.50;;;;;;;23.33;100.00;99715.44;1760168;80;21439;-67
2022/08/30 05:30:20;;;;;;;5.97;5.42;;;;;;;23.33;100.00;99715.44;1758354;80;22000;-66
2022/08/30 05:32:46;;;;;;;5.08;4.67;;;;;;;23.39;99.96;99712.66;1751679;80;21421;-67
2022/08/30 05:35:14;;;;;;;5.33;4.83;;;;;;;23.43;99.61;99715.91;1762149;80;21580;-67
2022/08/30 05:37:41;;;;;;;5.45;5.05;;;;;;;23.52;97.95;99706.47;1754543;80;21534;-67
2022/08/30 05:40:08;;;;;;;6.20;5.55;;;;;;;23.52;97.95;99706.47;1746340;80;21606;-67
2022/08/30 05:42:35;;;;;;;5.08;4.67;;;;;;;23.58;97.61;99706.38;1766206;80;26049;-66
2022/08/30 05:45:02;;;;;;;5.12;4.72;;;;;;;23.64;97.21;99700.44;1763087;80;21020;-67
2022/08/30 05:47:28;;;;;;;5.70;5.03;;;;;;;23.67;96.60;99709.52;1760670;80;21661;-66
2022/08/30 05:49:55;;;;;;;5.15;4.78;;;;;;;23.70;95.58;99693.12;1751249;80;21566;-67
2022/08/30 05:52:22;;;;;;;5.17;4.75;;;;;;;23.70;95.58;99693.12;1750343;80;21435;-67
2022/08/30 05:54:54;;;;;;;5.87;5.10;;;;;;;23.68;95.67;99703.67;1762382;80;21855;-66
2022/08/30 05:57:21;;;;;;;5.33;4.92;;;;;;;23.76;95.62;99701.58;1750739;80;21452;-67
2022/08/30 05:59:48;;;;;;;5.60;5.13;;;;;;;23.89;94.79;99700.77;1753625;80;21030;-67
2022/08/30 06:02:14;;;;;;;4.70;4.30;;;;;;;24.01;94.23;99700.05;1757631;80;21655;-66
2022/08/30 06:04:41;;;;;;;4.80;4.40;;;;;;;24.10;93.60;99694.61;1747727;80;21488;-67
2022/08/30 06:07:08;;;;;;;4.27;3.90;;;;;;;24.21;92.64;99700.78;1757254;80;22015;-66
2022/08/30 06:09:34;;;;;;;4.62;4.22;;;;;;;24.29;91.88;99700.85;1754037;80;21416;-66
2022/08/30 06:12:02;;;;;;;4.40;4.00;;;;;;;24.36;91.10;99688.50;1749168;80;21486;-67
2022/08/30 06:14:29;;;;;;;4.58;4.20;;;;;;;24.42;90.39;99702.66;1756697;80;20995;-65
2022/08/30 06:16:57;;;;;;;5.35;4.08;;;;;;;24.47;90.00;99700.88;1741915;80;21581;-66
2022/08/30 06:19:24;;;;;;;4.15;3.85;;;;;;;24.50;89.32;99701.89;1740162;80;21843;-65
2022/08/30 06:21:50;;;;;;;4.22;3.92;;;;;;;24.58;88.90;99707.86;1742283;80;21528;-65
2022/08/30 06:24:17;;;;;;;5.03;3.95;;;;;;;24.68;88.63;99705.45;1741003;80;21606;-65
2022/08/30 06:26:45;;;;;;;4.53;4.10;;;;;;;24.82;88.07;99705.89;1748669;80;20947;-65
2022/08/30 06:29:14;;;;;;;4.80;4.40;;;;;;;24.91;87.88;99706.80;1742308;80;21493;-64
2022/08/30 06:31:41;;;;;;;4.45;4.15;;;;;;;25.00;86.51;99704.02;1741973;80;21900;-66
2022/08/30 06:34:08;;;;;;;4.85;4.25;;;;;;;25.01;85.93;99700.81;1744744;80;21609;-66
2022/08/30 06:36:35;;;;;;;4.00;3.70;;;;;;;25.04;85.66;99700.52;1743662;80;21443;-67
2022/08/30 06:39:02;;;;;;;6.13;3.93;;;;;;;24.65;84.28;99625.11;1679794;84;21006;-65
2022/08/30 06:41:31;;;;;;;4.03;3.72;;;;;;;25.18;83.50;99703.95;1746434;80;21439;-66
2022/08/30 06:44:00;;;;;;;4.85;3.92;;;;;;;25.24;83.26;99700.68;1741575;80;22083;-67
2022/08/30 06:46:31;;;;;;;4.65;3.30;;;;;;;25.30;81.92;99703.23;1752047;80;21632;-66
2022/08/30 06:48:58;;;;;;;3.52;3.30;;;;;;;25.36;80.71;99701.24;1691437;83;21470;-65
2022/08/30 06:51:30;;;;;;;3.60;3.30;;;;;;;25.36;80.71;99701.24;1751206;80;21444;-66
2022/08/30 06:53:57;;;;;;;4.33;3.27;;;;;;;25.48;79.21;99697.77;1744906;80;21447;-64
2022/08/30 06:56:24;;;;;;;5.10;3.97;;;;;;;25.55;78.55;99702.85;1739046;80;21847;-63
2022/08/30 06:58:51;;;;;;;3.98;3.20;;;;;;;25.62;77.17;99697.17;1741476;80;21725;-65
2022/08/30 07:01:20;;;;;;;3.62;3.33;;;;;;;25.69;75.85;99711.33;1745268;80;21542;-64
2022/08/30 07:03:47;;;;;;;3.52;2.90;;;;;;;25.66;75.27;99703.08;1739823;80;21508;-65
2022/08/30 07:06:13;;;;;;;3.62;3.33;;;;;;;25.66;74.23;99702.24;1744996;80;21566;-66
2022/08/30 07:08:40;;;;;;;3.83;3.50;;;;;;;25.68;73.53;99698.38;1739273;80;21705;-66
2022/08/30 07:11:08;;;;;;;3.20;2.98;;;;;;;25.72;72.40;99698.89;1748749;80;21521;-66
2022/08/30 07:13:35;;;;;;;4.12;3.40;;;;;;;25.79;71.89;99701.28;1740590;80;21072;-64
2022/08/30 07:16:11;;;;;;;3.72;3.10;;;;;;;25.88;70.67;99703.00;1746721;80;21551;-65
2022/08/30 07:18:53;;;;;;;3.55;3.20;;;;;;;26.01;70.78;99706.11;1743546;80;21514;-64
2022/08/30 07:21:26;;;;;;;3.22;3.02;;;;;;;26.17;69.42;99707.98;1739138;80;21993;-64
2022/08/30 07:23:56;;;;;;;3.20;2.90;;;;;;;26.24;67.28;99713.57;1738757;80;21671;-70
2022/08/30 07:26:30;;;;;;;4.05;3.33;;;;;;;26.24;67.05;99701.45;1747069;80;21680;-65
2022/08/30 07:28:57;;;;;;;2.90;2.70;;;;;;;26.27;67.15;99701.61;1752941;80;21538;-67
2022/08/30 07:31:25;;;;;;;4.07;3.10;;;;;;;26.36;65.11;99706.00;1748750;80;21594;-65
2022/08/30 07:33:52;;;;;;;3.00;2.70;;;;;;;26.36;65.11;99706.00;1743909;80;21828;-65
2022/08/30 07:36:20;;;;;;;3.08;2.65;;;;;;;26.41;63.93;99709.05;1742289;80;21476;-66
2022/08/30 07:38:48;;;;;;;3.50;3.00;;;;;;;26.46;63.36;99703.15;1738541;80;21566;-66
2022/08/30 07:41:19;;;;;;;2.80;2.60;;;;;;;26.50;61.36;99703.98;1755406;80;21605;-66
2022/08/30 07:43:45;;;;;;;4.80;2.90;;;;;;;26.64;60.22;99698.48;1683167;82;21542;-66
2022/08/30 07:46:12;;;;;;;6.10;2.73;;;;;;;26.72;60.12;99710.60;1742610;80;21822;-67
2022/08/30 07:48:39;;;;;;;5.30;2.70;;;;;;;26.71;58.05;99702.19;1739153;80;21606;-65
2022/08/30 07:51:12;;;;;;;4.75;2.30;;;;;;;26.74;57.70;99702.34;1749327;80;21548;-66
2022/08/30 07:53:38;;;;;;;3.40;3.10;;;;;;;26.83;57.27;99709.43;1693334;82;21563;-65
2022/08/30 07:56:05;;;;;;;2.80;2.60;;;;;;;26.83;55.99;99695.94;1743315;80;21467;-66
2022/08/30 07:58:32;;;;;;;2.52;2.37;;;;;;;26.81;55.60;99704.72;1748103;80;21824;-66
2022/08/30 08:01:00;;;;;;;2.75;2.55;;;;;;;26.93;55.42;99699.30;1741724;80;21517;-66
2022/08/30 08:03:27;;;;;;;2.62;2.42;;;;;;;27.05;54.98;99701.64;1742416;80;21669;-66
2022/08/30 08:05:54;;;;;;;2.67;2.47;;;;;;;27.06;54.11;99696.59;1744932;80;21609;-67
2022/08/30 08:08:21;;;;;;;3.30;2.73;;;;;;;27.06;54.11;99696.59;1748049;80;22115;-66
2022/08/30 08:10:47;;;;;;;3.37;2.90;;;;;;;27.01;52.96;99691.70;1743242;80;21948;-66
2022/08/30 08:13:15;;;;;;;5.03;2.90;;;;;;;27.09;52.92;99691.70;1744286;80;21629;-66
2022/08/30 08:15:42;;;;;;;2.90;2.70;;;;;;;27.15;52.94;99695.56;1755209;80;21554;-66
2022/08/30 08:18:08;;;;;;;3.45;2.77;;;;;;;27.21;52.42;99696.73;1751153;80;21435;-66
2022/08/30 08:20:35;;;;;;;2.83;2.47;;;;;;;27.34;51.41;99696.55;1751920;80;21623;-66
2022/08/30 08:23:04;;;;;;;4.60;2.98;;;;;;;27.34;51.41;99696.55;1760224;80;22060;-67
2022/08/30 08:25:30;;;;;;;3.77;2.87;;;;;;;27.40;50.93;99690.97;1751323;80;21530;-65
2022/08/30 08:27:57;;;;;;;2.72;2.40;;;;;;;27.37;50.48;99683.24;1757581;80;21513;-65
2022/08/30 08:30:23;;;;;;;2.53;2.30;;;;;;;27.46;49.99;99691.62;1749489;80;21660;-65
2022/08/30 08:32:50;;;;;;;2.50;2.27;;;;;;;27.65;48.35;99678.73;1747804;80;21576;-67
2022/08/30 08:35:17;;;;;;;4.85;2.55;;;;;;;27.65;48.35;99678.73;1742400;80;21967;-66
2022/08/30 08:37:44;;;;;;;2.70;2.45;;;;;;;27.68;47.96;99684.62;1758256;80;21506;-65
2022/08/30 08:40:15;;;;;;;3.00;2.70;;;;;;;27.78;47.87;99684.41;1706164;82;21459;-65
2022/08/30 08:42:54;;;;;;;4.92;2.60;;;;;;;27.85;47.70;99686.73;1752063;80;21117;-65
2022/08/30 08:45:45;;;;;;;3.17;2.30;;;;;;;27.95;46.57;99691.47;1751800;80;21633;-66
2022/08/30 08:48:40;;;;;;;2.95;2.58;;;;;;;27.98;45.17;99691.61;1751654;80;21832;-65
2022/08/30 08:53:59;;;;;;;2.67;2.08;;;;;;;27.85;44.80;99687.26;1757009;80;21526;-65
2022/08/30 08:56:26;;;;;;;3.05;2.50;;;;;;;27.82;44.16;99692.52;1757578;80;21528;-64
2022/08/30 08:58:54;;;;;;;3.20;2.33;;;;;;;27.73;44.12;99685.47;1750102;80;21672;-63
2022/08/30 09:01:26;;;;;;;3.00;2.62;;;;;;;27.76;44.22;99681.05;1748389;80;21951;-63
2022/08/30 09:03:53;;;;;;;2.10;1.90;;;;;;;27.88;44.31;99682.86;1755232;80;21454;-64
2022/08/30 09:06:58;;;;;;;3.85;2.40;;;;;;;27.95;44.52;99676.61;1734399;80;21582;-64
2022/08/30 09:09:32;;;;;;;5.37;2.62;;;;;;;28.08;44.76;99680.57;1752479;80;21545;-63
2022/08/30 09:11:59;;;;;;;2.62;2.42;;;;;;;28.19;44.16;99684.22;1754536;80;21565;-64
2022/08/30 09:14:31;;;;;;;2.85;2.37;;;;;;;28.27;43.68;99681.97;1747401;80;21988;-67
2022/08/30 09:17:04;;;;;;;3.80;2.40;;;;;;;28.29;43.90;99683.48;1726329;81;21510;-67
2022/08/30 09:19:43;;;;;;;3.30;2.37;;;;;;;28.37;43.46;99681.23;1737532;81;20955;-65
2022/08/30 09:22:34;;;;;;;;;;;;;;;28.29;42.11;99699.70;1730882;81;21495;-66
2022/08/30 09:28:50;;;;;;;2.45;1.92;;;;;;;27.77;43.14;99692.20;1772849;79;23230;-64
2022/08/30 09:31:26;;;;;;;2.83;2.40;;;;;;;28.17;41.70;99682.72;1728598;81;21576;-68
2022/08/30 09:34:06;;;;;;;2.83;2.27;;;;;;;28.19;41.67;99678.81;1735230;81;21521;-65
2022/08/30 09:36:43;;;;;;;2.95;1.90;;;;;;;28.32;41.34;99682.28;1731788;81;21510;-65
2022/08/30 09:39:32;;;;;;;4.75;2.33;;;;;;;28.36;41.24;99678.19;1723384;80;21584;-64
2022/08/30 09:42:24;;;;;;;5.97;2.20;;;;;;;28.31;41.40;99676.52;1739955;80;21032;-63
2022/08/30 09:44:52;;;;;;;2.80;2.40;;;;;;;28.32;41.50;99682.28;1736408;81;21581;-65
2022/08/30 09:47:30;;;;;;;2.65;2.25;;;;;;;28.41;41.24;99672.25;1732950;80;21779;-65
2022/08/30 09:50:13;;;;;;;2.30;1.90;;;;;;;28.49;41.58;99675.72;1713929;81;21561;-66
2022/08/30 09:52:58;;;;;;;2.77;2.25;;;;;;;28.58;40.94;99683.30;1735796;81;21547;-64
2022/08/30 09:55:55;;;;;;;2.22;2.02;;;;;;;28.43;40.54;99680.51;1732375;81;21439;-65
2022/08/30 09:58:45;;;;;;;4.40;2.20;;;;;;;28.46;40.67;99669.34;1737456;80;21399;-65
2022/08/30 10:01:16;;;;;;;2.37;2.17;;;;;;;28.55;40.45;99676.89;1734704;81;21899;-64
2022/08/30 10:03:59;;;;;;;2.70;2.17;;;;;;;28.67;39.73;99679.50;1734037;81;21656;-66
2022/08/30 10:06:53;;;;;;;4.75;1.90;;;;;;;28.79;39.48;99673.14;1737626;81;21564;-66
2022/08/30 10:09:50;;;;;;;1.70;1.60;;;;;;;28.57;39.16;99625.33;1735396;81;21514;-68
2022/08/30 10:12:30;;;;;;;5.05;1.65;;;;;;;28.86;38.77;99670.55;1735450;81;21601;-64
2022/08/30 10:15:20;;;;;;;1.95;1.85;;;;;;;28.85;38.49;99671.56;1725511;80;21888;-65
2022/08/30 10:18:23;;;;;;;7.58;2.25;;;;;;;28.88;38.66;99668.50;1733162;81;21506;-65
2022/08/30 10:21:09;;;;;;;2.47;2.27;;;;;;;28.92;38.92;99660.34;1734008;81;21501;-65
2022/08/30 10:23:43;;;;;;;3.62;2.15;;;;;;;28.98;39.24;99660.95;1732192;81;21609;-66
2022/08/30 10:26:18;;;;;;;4.75;2.00;;;;;;;29.05;39.25;99663.25;1732972;81;21645;-64
2022/08/30 10:28:52;;;;;;;3.10;2.37;;;;;;;29.06;39.45;99667.61;1732286;80;21742;-64
2022/08/30 10:31:42;;;;;;;2.47;2.27;;;;;;;29.08;39.80;99657.47;1724349;81;21478;-63
2022/08/30 10:34:42;;;;;;;2.55;1.82;;;;;;;29.20;39.98;99659.23;1741005;81;21554;-63
2022/08/30 10:37:16;;;;;;;1.90;1.75;;;;;;;29.40;39.52;99654.07;1736721;81;21013;-64
2022/08/30 10:39:52;;;;;;;3.52;2.20;;;;;;;29.42;39.05;99651.19;1735384;81;21538;-64
2022/08/30 10:42:32;;;;;;;2.95;1.87;;;;;;;29.33;38.83;99652.30;1698161;82;21489;-64
2022/08/30 10:45:07;;;;;;;2.12;1.82;;;;;;;29.41;38.89;99650.87;1679469;83;21587;-63
2022/08/30 10:47:58;;;;;;;1.80;1.70;;;;;;;29.47;38.42;99655.01;1674537;83;21454;-64
2022/08/30 10:50:33;;;;;;;2.47;1.80;;;;;;;29.46;38.69;99652.48;1672315;83;21486;-63
2022/08/30 10:53:14;;;;;;;3.70;1.98;;;;;;;29.42;38.50;99650.69;1680841;84;21641;-65
2022/08/30 10:56:04;;;;;;;2.83;1.75;;;;;;;29.46;38.75;99649.77;1678564;84;21812;-65
2022/08/30 10:58:30;;;;;;;1.87;1.70;;;;;;;29.54;38.46;99648.34;1701159;83;20957;-64
2022/08/30 11:01:21;;;;;;;2.37;1.77;;;;;;;29.49;37.88;99642.64;1695718;82;21596;-64
2022/08/30 11:04:22;;;;;;;2.60;1.90;;;;;;;29.47;38.20;99650.95;1650347;83;21574;-64
2022/08/30 11:07:18;;;;;;;1.95;1.75;;;;;;;29.48;37.93;99654.00;1671332;83;21568;-65
2022/08/30 11:10:15;;;;;;;2.00;1.90;;;;;;;29.49;38.10;99653.47;1685807;84;21664;-62
2022/08/30 11:13:04;;;;;;;1.93;1.67;;;;;;;29.44;38.15;99637.80;1706267;82;21640;-64
2022/08/30 11:15:35;;;;;;;1.77;1.67;;;;;;;29.37;38.13;99635.52;1689809;84;21433;-64
2022/08/30 11:18:11;;;;;;;3.30;1.67;;;;;;;29.28;38.05;99641.53;1680478;83;21629;-65
2022/08/30 11:20:44;;;;;;;3.30;2.10;;;;;;;29.36;38.26;99639.23;1668344;83;21577;-64
2022/08/30 11:23:30;;;;;;;4.55;1.57;;;;;;;29.46;37.98;99629.46;1668225;83;21811;-66
2022/08/30 11:26:06;;;;;;;1.77;1.67;;;;;;;29.55;37.78;99626.14;1681421;84;21519;-64
2022/08/30 11:28:42;;;;;;;2.72;1.87;;;;;;;29.58;37.27;99629.84;1668935;83;21459;-67
2022/08/30 11:31:24;;;;;;;2.10;1.92;;;;;;;29.65;37.64;99629.41;1734600;81;21491;-68
2022/08/30 11:33:58;;;;;;;1.57;1.47;;;;;;;29.72;37.00;99623.53;1734125;82;21430;-64
2022/08/30 11:36:37;;;;;;;1.87;1.77;;;;;;;29.82;37.11;99636.31;1731572;81;21883;-63
2022/08/30 11:39:08;;;;;;;1.45;1.35;;;;;;;29.91;36.97;99626.17;1728471;82;21574;-63
2022/08/30 11:41:46;;;;;;;1.98;1.80;;;;;;;29.95;37.03;99613.08;1732449;82;21377;-62
2022/08/30 11:44:22;;;;;;;;;;;;;;;30.14;36.83;99619.24;1735534;82;21455;-62
2022/08/30 11:46:54;;;;;;;1.37;1.27;;;;;;;30.29;34.67;99613.75;1731610;81;20415;-63
2022/08/30 11:49:29;;;;;;;2.95;1.75;;;;;;;30.32;36.27;99612.02;1728313;82;21808;-63
2022/08/30 11:52:28;;;;;;;2.50;1.70;;;;;;;30.37;36.32;99614.17;1728917;82;21456;-66
2022/08/30 11:55:24;;;;;;;1.92;1.65;;;;;;;30.33;35.87;99622.34;1734307;82;21455;-66
2022/08/30 11:58:19;;;;;;;2.60;1.60;;;;;;;30.18;36.11;99609.69;1734700;80;21587;-65